createdAt,value
2023-04-18T00:01:40.477Z,15.10
2023-04-18T00:04:10.506Z,14.43
2023-04-18T00:06:38.548Z,13.40
2023-04-18T00:09:06.632Z,13.80
2023-04-18T00:11:34.559Z,12.17
2023-04-18T00:14:03.264Z,11.83
2023-04-18T00:16:33.081Z,11.03
2023-04-18T00:19:02.202Z,13.37
2023-04-18T00:21:30.129Z,10.73
2023-04-18T00:23:57.960Z,11.77
2023-04-18T00:26:25.801Z,11.87
2023-04-18T00:28:54.521Z,11.40
2023-04-18T00:31:22.302Z,10.03
2023-04-18T00:33:53.109Z,13.37
2023-04-18T00:36:20.863Z,11.73
2023-04-18T00:38:48.636Z,10.90
2023-04-18T00:41:16.774Z,9.53
2023-04-18T00:43:44.559Z,11.97
2023-04-18T00:46:12.571Z,11.63
2023-04-18T00:48:40.718Z,11.57
2023-04-18T00:51:10.900Z,10.23
2023-04-18T00:53:38.937Z,9.20
2023-04-18T00:56:07.478Z,9.13
2023-04-18T00:58:35.887Z,9.50
2023-04-18T01:01:03.943Z,8.57
2023-04-18T01:03:32.995Z,9.40
2023-04-18T01:06:01.151Z,8.87
2023-04-18T01:08:30.606Z,10.20
2023-04-18T01:10:59.600Z,9.10
2023-04-18T01:13:27.510Z,11.90
2023-04-18T01:15:55.739Z,10.43
2023-04-18T01:18:24.343Z,11.30
2023-04-18T01:20:53.350Z,10.63
2023-04-18T01:23:21.954Z,13.33
2023-04-18T01:25:51.047Z,9.67
2023-04-18T01:28:21.228Z,11.17
2023-04-18T01:30:49.683Z,10.83
2023-04-18T01:33:17.500Z,12.03
2023-04-18T01:35:48.226Z,9.33
2023-04-18T01:38:15.948Z,10.20
2023-04-18T01:40:43.914Z,11.00
2023-04-18T01:43:13.092Z,11.37
2023-04-18T01:45:40.909Z,11.53
2023-04-18T01:48:10.079Z,10.57
2023-04-18T01:50:37.807Z,10.73
2023-04-18T01:53:05.601Z,13.40
2023-04-18T01:55:33.300Z,11.03
2023-04-18T01:58:01.105Z,11.00
2023-04-18T02:00:30.280Z,12.77
2023-04-18T02:02:59.553Z,13.17
2023-04-18T02:05:28.061Z,12.47
2023-04-18T02:07:55.941Z,12.07
2023-04-18T02:10:23.895Z,10.37
2023-04-18T02:12:51.666Z,10.30
2023-04-18T02:15:19.862Z,11.00
2023-04-18T02:17:50.527Z,13.03
2023-04-18T02:20:18.272Z,11.30
2023-04-18T02:22:47.776Z,12.97
2023-04-18T02:25:15.545Z,9.97
2023-04-18T02:27:43.386Z,11.07
2023-04-18T02:30:11.700Z,11.83
2023-04-18T02:32:39.623Z,10.83
2023-04-18T02:35:09.463Z,9.57
2023-04-18T02:37:37.238Z,11.93
2023-04-18T02:40:05.864Z,10.77
2023-04-18T02:42:33.624Z,11.00
2023-04-18T02:45:02.625Z,13.83
2023-04-18T02:47:35.409Z,11.27
2023-04-18T02:50:13.085Z,12.23
2023-04-18T02:52:40.940Z,12.63
2023-04-18T02:55:10.588Z,13.50
2023-04-18T02:57:41.916Z,12.63
2023-04-18T03:00:38.814Z,11.23
2023-04-18T03:03:06.698Z,10.87
2023-04-18T03:05:55.765Z,11.40
2023-04-18T03:08:23.875Z,10.90
2023-04-18T03:10:51.747Z,11.70
2023-04-18T03:13:23.286Z,11.67
2023-04-18T03:15:52.075Z,11.60
2023-04-18T03:18:19.936Z,13.37
2023-04-18T03:20:48.076Z,14.37
2023-04-18T03:23:19.071Z,12.60
2023-04-18T03:25:47.329Z,11.83
2023-04-18T03:28:15.147Z,12.13
2023-04-18T03:30:43.108Z,13.57
2023-04-18T03:33:11.979Z,12.57
2023-04-18T03:35:40.202Z,11.33
2023-04-18T03:38:08.440Z,11.87
2023-04-18T03:40:42.106Z,14.10
2023-04-18T03:43:16.802Z,13.53
2023-04-18T03:45:47.238Z,12.50
2023-04-18T03:48:16.982Z,13.77
2023-04-18T03:50:46.783Z,13.33
2023-04-18T03:53:15.022Z,13.67
2023-04-18T03:55:44.627Z,13.40
2023-04-18T03:58:15.346Z,13.30
2023-04-18T04:00:43.417Z,12.43
2023-04-18T04:03:12.467Z,13.13
2023-04-18T04:05:41.276Z,14.47
2023-04-18T04:08:09.067Z,12.73
2023-04-18T04:10:37.031Z,13.10
2023-04-18T04:13:06.618Z,13.47
2023-04-18T04:15:38.475Z,13.00
2023-04-18T04:18:08.978Z,14.97
2023-04-18T04:20:39.984Z,13.37
2023-04-18T04:23:13.272Z,13.07
2023-04-18T04:25:42.400Z,12.97
2023-04-18T04:28:22.684Z,13.43
2023-04-18T04:30:56.583Z,15.13
2023-04-18T04:33:28.382Z,15.43
2023-04-18T04:36:01.217Z,15.17
2023-04-18T04:38:31.387Z,13.20
2023-04-18T04:40:59.792Z,12.97
2023-04-18T04:43:29.652Z,15.23
2023-04-18T04:45:58.365Z,13.70
2023-04-18T04:48:26.951Z,15.33
2023-04-18T04:50:57.866Z,16.17
2023-04-18T04:53:27.946Z,12.87
2023-04-18T04:55:56.090Z,16.03
2023-04-18T04:58:24.283Z,13.97
2023-04-18T05:01:07.521Z,15.00
2023-04-18T05:03:36.465Z,14.20
2023-04-18T05:06:05.821Z,14.23
2023-04-18T05:08:33.905Z,15.13
2023-04-18T05:11:02.402Z,14.37
2023-04-18T05:13:30.152Z,12.77
2023-04-18T05:15:59.282Z,13.60
2023-04-18T05:18:28.539Z,15.30
2023-04-18T05:20:56.905Z,13.97
2023-04-18T05:23:24.804Z,14.90
2023-04-18T05:25:53.282Z,13.17
2023-04-18T05:28:21.136Z,15.87
2023-04-18T05:30:48.948Z,15.90
2023-04-18T05:33:16.803Z,14.83
2023-04-18T05:35:45.904Z,15.50
2023-04-18T05:38:13.734Z,13.37
2023-04-18T05:40:42.398Z,14.03
2023-04-18T05:43:10.176Z,14.20
2023-04-18T05:45:38.103Z,15.07
2023-04-18T05:48:06.076Z,12.23
2023-04-18T05:50:33.884Z,13.83
2023-04-18T05:53:03.032Z,13.27
2023-04-18T05:55:30.840Z,12.60
2023-04-18T05:57:58.620Z,14.30
2023-04-18T06:00:26.398Z,16.40
2023-04-18T06:02:54.207Z,11.90
2023-04-18T06:05:22.730Z,13.47
2023-04-18T06:07:50.791Z,12.73
2023-04-18T06:10:20.164Z,12.87
2023-04-18T06:12:47.892Z,12.50
2023-04-18T06:15:15.649Z,13.80
2023-04-18T06:17:44.578Z,12.27
2023-04-18T06:20:12.716Z,12.20
2023-04-18T06:22:40.418Z,14.10
2023-04-18T06:25:09.944Z,11.33
2023-04-18T06:27:39.402Z,13.13
2023-04-18T06:30:08.173Z,10.93
2023-04-18T06:32:35.973Z,11.40
2023-04-18T06:35:03.977Z,11.07
2023-04-18T06:37:31.768Z,11.93
2023-04-18T06:39:59.607Z,10.87
2023-04-18T06:42:27.315Z,10.33
2023-04-18T06:44:57.272Z,10.40
2023-04-18T06:47:25.188Z,9.77
2023-04-18T06:49:52.953Z,9.70
2023-04-18T06:52:20.638Z,9.30
2023-04-18T06:54:48.384Z,11.47
2023-04-18T06:57:16.923Z,9.60
2023-04-18T06:59:44.647Z,12.43
2023-04-18T07:02:14.032Z,11.73
2023-04-18T07:04:41.918Z,9.87
2023-04-18T07:07:09.823Z,10.87
2023-04-18T07:09:37.592Z,10.20
2023-04-18T07:12:05.534Z,9.23
2023-04-18T07:14:34.302Z,9.03
2023-04-18T07:17:02.709Z,9.00
2023-04-18T07:19:31.859Z,8.40
2023-04-18T07:21:59.603Z,9.40
2023-04-18T07:24:27.412Z,8.00
2023-04-18T07:26:55.317Z,8.23
2023-04-18T07:29:23.244Z,9.13
2023-04-18T07:31:51.218Z,9.90
2023-04-18T07:34:19.056Z,8.33
2023-04-18T07:36:48.173Z,9.10
2023-04-18T07:39:15.889Z,8.43
2023-04-18T07:41:43.630Z,8.30
2023-04-18T07:44:11.635Z,9.73
2023-04-18T07:46:39.596Z,8.03
2023-04-18T07:49:07.446Z,8.10
2023-04-18T07:51:35.298Z,9.23
2023-04-18T07:54:04.340Z,7.30
2023-04-18T07:56:32.068Z,8.40
2023-04-18T07:58:59.759Z,8.63
2023-04-18T08:01:27.660Z,8.10
2023-04-18T08:03:57.729Z,10.33
2023-04-18T08:06:26.196Z,6.83
2023-04-18T08:08:54.075Z,6.97
2023-04-18T08:11:23.341Z,7.40
2023-04-18T08:13:51.153Z,6.87
2023-04-18T08:16:18.950Z,6.70
2023-04-18T08:18:46.707Z,6.50
2023-04-18T08:21:14.518Z,9.57
2023-04-18T08:23:42.242Z,6.57
2023-04-18T08:26:10.168Z,6.97
2023-04-18T08:28:39.331Z,6.90
2023-04-18T08:31:07.141Z,7.50
2023-04-18T08:33:35.022Z,6.67
2023-04-18T08:36:03.212Z,7.17
2023-04-18T08:38:31.110Z,6.03
2023-04-18T08:40:58.834Z,15.17
2023-04-18T08:43:26.816Z,6.57
2023-04-18T08:46:00.277Z,6.93
2023-04-18T08:48:28.851Z,6.47
2023-04-18T08:50:58.736Z,6.47
2023-04-18T08:53:27.543Z,7.83
2023-04-18T08:55:56.414Z,6.30
2023-04-18T08:58:27.004Z,7.50
2023-04-18T09:00:56.299Z,6.83
2023-04-18T09:03:40.875Z,6.93
2023-04-18T09:06:18.576Z,6.73
2023-04-18T09:08:58.746Z,8.27
2023-04-18T09:11:28.987Z,6.67
2023-04-18T09:13:58.718Z,5.80
2023-04-18T09:16:29.237Z,6.97
2023-04-18T09:19:11.939Z,6.23
2023-04-18T09:21:41.463Z,7.23
2023-04-18T09:24:23.554Z,7.23
2023-04-18T09:26:53.769Z,6.30
2023-04-18T09:29:23.369Z,6.93
2023-04-18T09:32:03.124Z,8.87
2023-04-18T09:34:34.013Z,5.10
2023-04-18T09:37:10.373Z,6.07
2023-04-18T09:39:39.495Z,7.80
2023-04-18T09:42:08.098Z,6.10
2023-04-18T09:44:35.897Z,6.20
2023-04-18T09:47:07.827Z,5.43
2023-04-18T09:49:35.720Z,8.77
2023-04-18T09:52:07.390Z,6.17
2023-04-18T09:54:39.495Z,6.50
2023-04-18T09:57:13.622Z,6.63
2023-04-18T09:59:47.717Z,6.10
2023-04-18T10:02:23.621Z,5.57
2023-04-18T10:04:52.493Z,6.30
2023-04-18T10:07:21.839Z,7.47
2023-04-18T10:09:50.453Z,6.60
2023-04-18T10:12:19.022Z,7.00
2023-04-18T10:14:47.293Z,7.23
2023-04-18T10:17:17.146Z,6.67
2023-04-18T10:19:46.767Z,5.83
2023-04-18T10:22:14.553Z,6.43
2023-04-18T10:24:50.203Z,6.97
2023-04-18T10:27:18.638Z,6.17
2023-04-18T10:29:51.176Z,4.90
2023-04-18T10:32:24.401Z,8.83
2023-04-18T10:34:54.630Z,6.40
2023-04-18T10:37:22.455Z,6.60
2023-04-18T10:39:52.050Z,5.07
2023-04-18T10:42:19.848Z,6.93
2023-04-18T10:45:20.941Z,5.10
2023-04-18T10:47:50.930Z,5.63
2023-04-18T10:50:18.876Z,6.13
2023-04-18T10:52:46.739Z,5.43
2023-04-18T10:55:18.328Z,5.90
2023-04-18T10:57:47.862Z,6.80
2023-04-18T11:00:18.228Z,8.17
2023-04-18T11:02:52.932Z,7.53
2023-04-18T11:05:23.294Z,6.73
2023-04-18T11:07:51.234Z,5.00
2023-04-18T11:10:20.771Z,6.13
2023-04-18T11:12:48.793Z,8.30
2023-04-18T11:15:21.232Z,6.33
2023-04-18T11:18:01.488Z,9.73
2023-04-18T11:20:30.156Z,5.83
2023-04-18T11:22:59.540Z,6.37
2023-04-18T11:25:29.495Z,7.40
2023-04-18T11:28:00.450Z,6.60
2023-04-18T11:30:28.994Z,7.60
2023-04-18T11:32:58.115Z,6.40
2023-04-18T11:35:25.961Z,6.20
2023-04-18T11:37:56.067Z,6.27
2023-04-18T11:40:24.240Z,6.90
2023-04-18T11:42:51.976Z,7.25
2023-04-18T11:45:19.740Z,6.30
2023-04-18T11:47:47.551Z,6.33
2023-04-18T11:50:16.739Z,7.10
2023-04-18T11:52:50.223Z,5.47
2023-04-18T11:55:21.370Z,7.45
2023-04-18T11:57:54.095Z,6.53
2023-04-18T12:00:35.006Z,6.57
2023-04-18T12:03:05.291Z,6.88
2023-04-18T12:05:36.929Z,7.90
2023-04-18T12:08:09.421Z,6.10
2023-04-18T12:10:37.464Z,5.50
2023-04-18T12:13:08.753Z,6.93
2023-04-18T12:15:39.753Z,8.23
2023-04-18T12:18:09.281Z,5.72
2023-04-18T12:20:46.448Z,6.67
2023-04-18T12:23:30.448Z,7.00
2023-04-18T12:26:02.483Z,5.28
2023-04-18T12:28:30.791Z,5.20
2023-04-18T12:30:58.955Z,5.65
2023-04-18T12:33:26.899Z,5.93
2023-04-18T12:35:56.037Z,5.05
2023-04-18T12:38:24.656Z,5.93
2023-04-18T12:40:53.080Z,6.22
2023-04-18T12:43:21.183Z,5.53
2023-04-18T12:45:49.048Z,5.45
2023-04-18T12:48:17.003Z,6.82
2023-04-18T12:50:44.854Z,5.40
2023-04-18T12:53:14.111Z,5.78
2023-04-18T12:55:42.017Z,5.70
2023-04-18T12:58:09.748Z,5.80
2023-04-18T13:00:38.086Z,7.57
2023-04-18T13:03:06.072Z,5.82
2023-04-18T13:05:34.506Z,5.65
2023-04-18T13:08:15.328Z,6.22
2023-04-18T13:10:46.112Z,5.07
2023-04-18T13:13:19.837Z,5.05
2023-04-18T13:15:47.694Z,4.97
2023-04-18T13:18:15.676Z,5.63
2023-04-18T13:20:44.018Z,8.73
2023-04-18T13:23:11.765Z,8.23
2023-04-18T13:25:42.761Z,7.85
2023-04-18T13:28:11.904Z,9.38
2023-04-18T13:30:39.891Z,8.35
2023-04-18T13:33:07.883Z,9.75
2023-04-18T13:35:41.570Z,7.63
2023-04-18T13:38:11.029Z,7.43
2023-04-18T13:40:39.206Z,6.82
2023-04-18T13:43:06.892Z,8.77
2023-04-18T13:45:36.255Z,9.50
2023-04-18T13:48:04.327Z,6.75
2023-04-18T13:50:32.129Z,9.10
2023-04-18T13:52:59.836Z,6.72
2023-04-18T13:55:30.752Z,8.20
2023-04-18T13:57:58.619Z,8.38
2023-04-18T14:00:28.448Z,6.72
2023-04-18T14:02:57.722Z,6.78
2023-04-18T14:05:25.831Z,11.13
2023-04-18T14:07:53.594Z,8.93
2023-04-18T14:10:21.684Z,6.90
2023-04-18T14:12:49.491Z,6.55
2023-04-18T14:15:17.711Z,6.43
2023-04-18T14:17:46.063Z,6.60
2023-04-18T14:20:19.152Z,7.30
2023-04-18T14:22:47.008Z,7.28
2023-04-18T14:25:16.993Z,8.48
2023-04-18T14:27:50.186Z,6.35
2023-04-18T14:30:17.975Z,5.65
2023-04-18T14:32:45.783Z,6.88
2023-04-18T14:35:15.065Z,9.80
2023-04-18T14:37:42.867Z,6.88
2023-04-18T14:40:12.269Z,6.55
2023-04-18T14:42:39.978Z,6.43
2023-04-18T14:45:09.053Z,6.68
2023-04-18T14:47:39.038Z,6.65
2023-04-18T14:50:08.268Z,6.30
2023-04-18T14:52:37.489Z,6.17
2023-04-18T14:55:05.852Z,6.88
2023-04-18T14:57:34.609Z,6.70
2023-04-18T15:00:03.987Z,6.63
2023-04-18T15:02:31.903Z,6.00
2023-04-18T15:05:00.232Z,5.87
2023-04-18T15:07:28.203Z,6.38
2023-04-18T15:09:57.518Z,8.05
2023-04-18T15:12:25.357Z,5.65
2023-04-18T15:14:53.887Z,6.88
2023-04-18T15:17:21.909Z,5.35
2023-04-18T15:19:49.633Z,6.40
2023-04-18T15:22:17.422Z,5.68
2023-04-18T15:24:45.144Z,7.03
2023-04-18T15:27:14.270Z,6.90
2023-04-18T15:29:42.025Z,4.75
2023-04-18T15:32:10.251Z,5.82
2023-04-18T15:34:38.086Z,6.05
2023-04-18T15:37:05.953Z,6.30
2023-04-18T15:39:33.695Z,6.65
2023-04-18T15:42:02.318Z,7.07
2023-04-18T15:44:31.794Z,7.50
2023-04-18T15:47:01.130Z,6.18
2023-04-18T15:49:28.859Z,6.05
2023-04-18T15:51:56.859Z,6.53
2023-04-18T15:54:43.017Z,6.50
2023-04-18T15:57:25.571Z,6.25
2023-04-18T16:00:12.336Z,6.28
2023-04-18T16:02:41.693Z,6.72
2023-04-18T16:05:14.132Z,5.90
2023-04-18T16:07:51.557Z,5.63
2023-04-18T16:10:26.287Z,6.80
2023-04-18T16:12:55.732Z,6.50
2023-04-18T16:15:29.134Z,6.10
2023-04-18T16:18:02.943Z,6.03
2023-04-18T16:20:43.720Z,5.78
2023-04-18T16:23:15.162Z,6.20
2023-04-18T16:25:51.530Z,6.47
2023-04-18T16:28:22.673Z,6.82
2023-04-18T16:30:55.613Z,5.72
2023-04-18T16:33:28.115Z,5.03
2023-04-18T16:36:02.922Z,5.13
2023-04-18T16:38:42.162Z,5.40
2023-04-18T16:41:11.298Z,5.10
2023-04-18T16:43:45.230Z,5.95
2023-04-18T16:46:18.694Z,5.35
2023-04-18T16:48:56.074Z,5.95
2023-04-18T16:51:36.144Z,5.50
2023-04-18T16:54:10.651Z,4.95
2023-04-18T16:56:44.994Z,5.93
2023-04-18T16:59:15.600Z,6.05
2023-04-18T17:01:48.102Z,5.47
2023-04-18T17:04:19.006Z,5.70
2023-04-18T17:06:55.314Z,5.68
2023-04-18T17:09:24.977Z,4.93
2023-04-18T17:11:57.173Z,5.97
2023-04-18T17:14:31.254Z,5.85
2023-04-18T17:17:07.481Z,5.50
2023-04-18T17:19:47.494Z,5.90
2023-04-18T17:22:18.952Z,6.15
2023-04-18T17:24:50.690Z,6.82
2023-04-18T17:27:22.649Z,5.68
2023-04-18T17:30:01.410Z,6.00
2023-04-18T17:32:42.762Z,6.20
2023-04-18T17:35:17.302Z,5.93
2023-04-18T17:37:46.404Z,5.55
2023-04-18T17:40:24.599Z,5.93
2023-04-18T17:42:53.964Z,5.93
2023-04-18T17:45:27.897Z,6.07
2023-04-18T17:48:04.546Z,4.80
2023-04-18T17:50:55.121Z,6.22
2023-04-18T17:53:31.492Z,5.60
2023-04-18T17:56:04.340Z,5.80
2023-04-18T17:58:55.306Z,5.53
2023-04-18T18:01:26.609Z,6.00
2023-04-18T18:04:03.031Z,6.00
2023-04-18T18:06:58.340Z,6.13
2023-04-18T18:09:37.585Z,5.90
2023-04-18T18:12:30.091Z,5.20
2023-04-18T18:15:07.737Z,6.07
2023-04-18T18:18:02.784Z,6.38
2023-04-18T18:20:39.653Z,6.15
2023-04-18T18:23:13.686Z,5.88
2023-04-18T18:25:57.414Z,6.93
2023-04-18T18:28:31.791Z,5.95
2023-04-18T18:31:02.906Z,7.13
2023-04-18T18:33:35.308Z,6.78
2023-04-18T18:36:07.962Z,6.53
2023-04-18T18:38:37.837Z,6.57
2023-04-18T18:41:12.259Z,6.22
2023-04-18T18:43:44.413Z,7.20
2023-04-18T18:46:19.176Z,6.10
2023-04-18T18:48:53.475Z,7.33
2023-04-18T18:51:24.232Z,6.43
2023-04-18T18:54:21.644Z,6.60
2023-04-18T18:56:52.289Z,6.90
2023-04-18T18:59:23.565Z,6.80
2023-04-18T19:01:53.218Z,7.78
2023-04-18T19:04:29.238Z,7.80
2023-04-18T19:07:01.270Z,7.82
2023-04-18T19:09:37.173Z,8.38
2023-04-18T19:12:10.316Z,8.47
2023-04-18T19:14:48.423Z,9.25
2023-04-18T19:17:22.287Z,11.00
2023-04-18T19:19:58.282Z,8.80
2023-04-18T19:22:29.448Z,8.77
2023-04-18T19:25:00.830Z,9.97
2023-04-18T19:27:36.234Z,8.75
2023-04-18T19:30:05.942Z,8.97
2023-04-18T19:32:35.149Z,9.93
2023-04-18T19:35:14.060Z,10.13
2023-04-18T19:37:45.208Z,8.80
2023-04-18T19:40:16.462Z,8.63
2023-04-18T19:42:54.143Z,8.85
2023-04-18T19:45:28.375Z,9.02
2023-04-18T19:48:00.662Z,8.40
2023-04-18T19:50:30.967Z,8.27
2023-04-18T19:53:02.906Z,7.68
2023-04-18T19:55:32.541Z,8.30
2023-04-18T19:58:02.092Z,8.93
2023-04-18T20:00:35.755Z,8.10
2023-04-18T20:03:17.430Z,8.77
2023-04-18T20:05:47.191Z,8.50
2023-04-18T20:08:18.847Z,9.48
2023-04-18T20:10:48.323Z,7.80
2023-04-18T20:13:20.316Z,7.93
2023-04-18T20:15:57.145Z,8.13
2023-04-18T20:18:29.574Z,8.75
2023-04-18T20:20:59.292Z,8.25
2023-04-18T20:23:30.375Z,8.37
2023-04-18T20:26:04.646Z,7.93
2023-04-18T20:28:39.075Z,7.97
2023-04-18T20:31:12.590Z,8.27
2023-04-18T20:33:42.240Z,8.53
2023-04-18T20:36:18.097Z,7.83
2023-04-18T20:38:52.006Z,8.80
2023-04-18T20:41:27.070Z,9.18
2023-04-18T20:44:00.222Z,8.30
2023-04-18T20:46:31.309Z,8.02
2023-04-18T20:49:06.197Z,8.00
2023-04-18T20:51:38.477Z,7.53
2023-04-18T20:54:28.054Z,7.47
2023-04-18T20:57:19.263Z,8.07
2023-04-18T20:59:51.148Z,7.27
2023-04-18T21:02:29.206Z,7.63
2023-04-18T21:04:56.968Z,7.97
2023-04-18T21:07:25.905Z,7.70
2023-04-18T21:09:54.977Z,7.53
2023-04-18T21:12:22.698Z,7.13
2023-04-18T21:14:50.462Z,7.27
2023-04-18T21:17:18.926Z,7.95
2023-04-18T21:19:46.722Z,7.50
2023-04-18T21:22:14.953Z,8.13
2023-04-18T21:24:42.988Z,6.78
2023-04-18T21:27:12.112Z,6.80
2023-04-18T21:29:40.057Z,7.83
2023-04-18T21:32:07.766Z,7.27
2023-04-18T21:34:35.572Z,7.15
2023-04-18T21:37:03.679Z,7.40
2023-04-18T21:39:31.464Z,7.22
2023-04-18T21:41:59.204Z,7.45
2023-04-18T21:44:28.388Z,8.05
2023-04-18T21:46:57.438Z,7.90
2023-04-18T21:49:25.594Z,8.05
2023-04-18T21:51:54.789Z,10.40
2023-04-18T21:54:22.538Z,8.25
2023-04-18T21:56:50.349Z,8.52
2023-04-18T21:59:18.035Z,8.13
2023-04-18T22:01:47.094Z,7.43
2023-04-18T22:04:15.968Z,7.50
2023-04-18T22:06:44.064Z,6.83
2023-04-18T22:09:12.729Z,6.97
2023-04-18T22:11:40.762Z,7.10
2023-04-18T22:14:09.864Z,7.07
2023-04-18T22:16:38.052Z,7.82
2023-04-18T22:19:08.976Z,7.75
2023-04-18T22:21:36.987Z,7.25
2023-04-18T22:24:05.252Z,7.47
2023-04-18T22:26:33.061Z,7.55
2023-04-18T22:29:00.852Z,8.00
2023-04-18T22:31:28.755Z,7.18
2023-04-18T22:33:56.557Z,7.22
2023-04-18T22:36:27.552Z,6.55
2023-04-18T22:38:55.308Z,7.17
2023-04-18T22:41:23.098Z,6.82
2023-04-18T22:43:50.878Z,7.10
2023-04-18T22:46:18.694Z,6.63
2023-04-18T22:48:46.759Z,6.93
2023-04-18T22:51:15.118Z,6.88
2023-04-18T22:53:44.128Z,7.07
2023-04-18T22:56:11.929Z,6.60
2023-04-18T22:58:39.770Z,6.68
2023-04-18T23:01:07.621Z,7.00
2023-04-18T23:03:35.492Z,9.38
2023-04-18T23:06:03.477Z,10.70
2023-04-18T23:08:31.535Z,11.00
2023-04-18T23:11:00.622Z,12.68
2023-04-18T23:13:28.300Z,13.07
2023-04-18T23:15:56.067Z,12.35
2023-04-18T23:18:23.882Z,12.45
2023-04-18T23:20:51.659Z,12.07
2023-04-18T23:23:19.321Z,13.68
2023-04-18T23:25:47.053Z,11.80
2023-04-18T23:28:17.122Z,13.57
2023-04-18T23:30:45.038Z,12.60
2023-04-18T23:33:13.271Z,12.17
2023-04-18T23:35:41.001Z,12.87
2023-04-18T23:38:08.792Z,11.40
2023-04-18T23:40:36.590Z,15.55
2023-04-18T23:43:04.275Z,12.03
2023-04-18T23:45:33.439Z,12.67
2023-04-18T23:48:01.297Z,11.93
2023-04-18T23:50:29.076Z,12.57
2023-04-18T23:52:56.895Z,12.93
2023-04-18T23:55:24.719Z,11.98
2023-04-18T23:57:52.496Z,12.73
